Battle, United Kingdom
Current Conditions -  °F | °C
As of 8:20 AM on Thursday 27 Nov 2014 (Local Time) from EGMD Reporting Station
Light Rain Light Rain  
Wind Chill: 54°   Ceiling: Unl
Heat Index: 54°   Visibility: 4mi
Dew Point: 52°   Wind: 9mph
Humidity: 94%   Direction: 190°S
Pressure: 29.65"   Gusts: NA
Location:  50.92°N, 0.48°E
Report Text: EGMD 270820Z 19008KT 7000 -RA SCT010 12/11 Q1004
Loading
Personal Weather Stations






























Interactive Weather Map New forecast layout! Learn more

10-Day Weather Forecast

Advertisements
Track Severe Weather on mobile